Time;durP1;ratioP1;P1;durP2;ratioP2;P2;SDS_P1;SDS_P2;PMS_P1;PMS_P2;Temp;Humidity;BMP_temperature;BMP_pressure;BME280_temperature;BME280_humidity;BME280_pressure;Samples;Min_cycle;Max_cycle;Signal;HPM_P1;HPM_P2
2024/01/28 00:00:37;;;;;;;;;;;0.20;99.90;;;;;;5080059;28;19966;-67
2024/01/28 00:03:03;;;;;;;;;;;0.10;99.90;;;;;;5082341;28;19923;-67
2024/01/28 00:05:29;;;;;;;;;;;0.10;99.90;;;;;;5073301;28;19916;-67
2024/01/28 00:07:54;;;;;;;;;;;0.10;99.90;;;;;;5087995;28;19926;-66
2024/01/28 00:10:20;;;;;;;;;;;0.00;99.90;;;;;;5085453;28;20400;-67
2024/01/28 00:12:45;;;;;;;;;;;0.00;99.90;;;;;;5083589;28;19916;-67
2024/01/28 00:15:11;;;;;;;;;;;0.00;99.90;;;;;;5084016;28;20329;-67
2024/01/28 00:17:37;;;;;;;;;;;-0.10;99.90;;;;;;5077357;28;19917;-66
2024/01/28 00:20:06;;;;;;;;;;;-0.10;99.90;;;;;;5087507;28;20278;-66
2024/01/28 00:22:31;;;;;;;;;;;-0.20;99.90;;;;;;5079649;28;19916;-67
2024/01/28 00:24:57;;;;;;;;;;;-0.20;99.90;;;;;;5084422;28;20007;-66
2024/01/28 00:27:23;;;;;;;;;;;-0.20;99.90;;;;;;5089142;28;19920;-67
2024/01/28 00:29:48;;;;;;;;;;;-0.30;99.90;;;;;;5083103;28;20344;-66
2024/01/28 00:32:14;;;;;;;;;;;-0.30;99.90;;;;;;5079532;28;19924;-66
2024/01/28 00:34:40;;;;;;;;;;;-0.30;99.90;;;;;;5078929;28;19928;-66
2024/01/28 00:37:06;;;;;;;;;;;-0.30;99.90;;;;;;5081410;28;19921;-66
2024/01/28 00:39:32;;;;;;;;;;;-0.30;99.90;;;;;;5084253;28;19985;-66
2024/01/28 00:41:58;;;;;;;;;;;-0.30;99.90;;;;;;5085516;28;20318;-66
2024/01/28 00:44:24;;;;;;;;;;;-0.40;99.90;;;;;;5082328;28;19916;-66
2024/01/28 00:46:49;;;;;;;;;;;-0.40;99.90;;;;;;5080078;28;20374;-66
2024/01/28 00:49:15;;;;;;;;;;;-0.30;99.90;;;;;;5064786;28;20011;-66
2024/01/28 00:51:40;;;;;;;;;;;-0.30;99.90;;;;;;5063239;28;20010;-66
2024/01/28 00:54:06;;;;;;;;;;;-0.20;99.90;;;;;;5063810;28;19928;-66
2024/01/28 00:56:31;;;;;;;;;;;-0.10;99.90;;;;;;5087629;28;19938;-66
2024/01/28 00:58:57;;;;;;;;;;;-0.10;99.90;;;;;;5078799;28;19916;-66
2024/01/28 01:01:23;;;;;;;;;;;-0.10;99.90;;;;;;5084022;28;19916;-65
2024/01/28 01:03:48;;;;;;;;;;;-0.10;99.90;;;;;;5075044;28;19921;-66
2024/01/28 01:06:14;;;;;;;;;;;-0.10;99.90;;;;;;5084295;28;20006;-67
2024/01/28 01:08:39;;;;;;;;;;;-0.20;99.90;;;;;;5083157;28;19916;-66
2024/01/28 01:11:08;;;;;;;;;;;-0.20;99.90;;;;;;5087780;28;19924;-66
2024/01/28 01:13:34;;;;;;;;;;;-0.30;99.90;;;;;;5082089;28;20020;-66
2024/01/28 01:15:59;;;;;;;;;;;-0.20;99.90;;;;;;5083842;28;20074;-67
2024/01/28 01:18:25;;;;;;;;;;;-0.30;99.90;;;;;;5078474;28;19923;-66
2024/01/28 01:20:51;;;;;;;;;;;-0.30;99.90;;;;;;5083727;28;20277;-66
2024/01/28 01:23:17;;;;;;;;;;;-0.30;99.90;;;;;;5060766;28;20003;-66
2024/01/28 01:25:42;;;;;;;;;;;-0.30;99.90;;;;;;5070464;28;19978;-66
2024/01/28 01:28:08;;;;;;;;;;;-0.30;99.90;;;;;;5073027;28;20389;-66
2024/01/28 01:30:33;;;;;;;;;;;-0.30;99.90;;;;;;5054671;28;20800;-66
2024/01/28 01:32:59;;;;;;;;;;;-0.30;99.90;;;;;;5077882;28;19927;-66
2024/01/28 01:35:26;;;;;;;;;;;-0.30;99.90;;;;;;5078874;28;19916;-66
2024/01/28 01:37:54;;;;;;;;;;;-0.30;99.90;;;;;;5076759;28;19955;-67
2024/01/28 01:40:20;;;;;;;;;;;-0.40;99.90;;;;;;5081032;28;19942;-66
2024/01/28 01:42:45;;;;;;;;;;;-0.40;99.90;;;;;;5083987;28;20377;-66
2024/01/28 01:45:12;;;;;;;;;;;-0.40;99.90;;;;;;5070594;28;20389;-66
2024/01/28 01:47:37;;;;;;;;;;;-0.40;99.90;;;;;;5075626;28;20246;-66
2024/01/28 01:50:04;;;;;;;;;;;-0.40;99.90;;;;;;5074324;28;19916;-67
2024/01/28 01:52:30;;;;;;;;;;;-0.40;99.90;;;;;;5062600;28;19916;-66
2024/01/28 01:54:56;;;;;;;;;;;-0.40;99.90;;;;;;5073604;28;19921;-66
2024/01/28 01:57:22;;;;;;;;;;;-0.40;99.90;;;;;;5080397;28;19916;-66
2024/01/28 01:59:48;;;;;;;;;;;-0.40;99.90;;;;;;5077073;28;19934;-67
2024/01/28 02:02:15;;;;;;;;;;;-0.50;99.90;;;;;;5072009;28;20408;-67
2024/01/28 02:04:40;;;;;;;;;;;-0.40;99.90;;;;;;5060426;28;19917;-66
2024/01/28 02:07:06;;;;;;;;;;;-0.50;99.90;;;;;;5072311;28;19985;-66
2024/01/28 02:09:34;;;;;;;;;;;-0.50;99.90;;;;;;5075786;28;19920;-66
2024/01/28 02:12:00;;;;;;;;;;;-0.50;99.90;;;;;;5075168;28;19924;-66
2024/01/28 02:14:29;;;;;;;;;;;-0.50;99.90;;;;;;5075997;28;19927;-65
2024/01/28 02:16:55;;;;;;;;;;;-0.50;99.90;;;;;;5073431;28;20263;-66
2024/01/28 02:19:21;;;;;;;;;;;-0.40;99.90;;;;;;5079289;28;20420;-66
2024/01/28 02:21:47;;;;;;;;;;;-0.40;99.90;;;;;;5078937;28;19986;-65
2024/01/28 02:24:13;;;;;;;;;;;-0.50;99.90;;;;;;5075390;28;19924;-67
2024/01/28 02:26:39;;;;;;;;;;;-0.40;99.90;;;;;;5089910;28;19920;-66
2024/01/28 02:29:05;;;;;;;;;;;-0.40;99.90;;;;;;5076758;28;19916;-66
2024/01/28 02:31:31;;;;;;;;;;;-0.40;99.90;;;;;;5073714;28;19963;-66
2024/01/28 02:33:58;;;;;;;;;;;-0.40;99.90;;;;;;5072433;28;19928;-66
2024/01/28 02:36:24;;;;;;;;;;;-0.40;99.90;;;;;;5072397;28;19916;-66
2024/01/28 02:38:49;;;;;;;;;;;-0.40;99.90;;;;;;5076716;28;19957;-66
2024/01/28 02:41:15;;;;;;;;;;;-0.40;99.90;;;;;;5072448;28;20339;-66
2024/01/28 02:43:40;;;;;;;;;;;-0.40;99.90;;;;;;5080018;28;20115;-66
2024/01/28 02:46:06;;;;;;;;;;;-0.40;99.90;;;;;;5073855;28;19920;-66
2024/01/28 02:48:32;;;;;;;;;;;-0.40;99.90;;;;;;5074508;28;19920;-66
2024/01/28 02:50:57;;;;;;;;;;;-0.40;99.90;;;;;;5072505;28;20377;-66
2024/01/28 02:53:23;;;;;;;;;;;-0.30;99.90;;;;;;5074258;28;19924;-65
2024/01/28 02:55:49;;;;;;;;;;;-0.30;99.90;;;;;;5070692;28;20007;-65
2024/01/28 02:58:16;;;;;;;;;;;-0.20;99.90;;;;;;5077463;28;19917;-66
2024/01/28 03:00:42;;;;;;;;;;;-0.10;99.90;;;;;;5070143;28;20012;-66
2024/01/28 03:03:08;;;;;;;;;;;0.00;99.90;;;;;;5077700;28;19921;-66
2024/01/28 03:05:34;;;;;;;;;;;0.10;99.90;;;;;;5072377;28;19916;-67
2024/01/28 03:08:00;;;;;;;;;;;0.20;99.90;;;;;;5077394;28;20041;-66
2024/01/28 03:10:26;;;;;;;;;;;0.30;99.90;;;;;;5074893;28;19916;-66
2024/01/28 03:12:52;;;;;;;;;;;0.20;99.90;;;;;;5074361;28;20405;-66
2024/01/28 03:15:18;;;;;;;;;;;0.30;99.90;;;;;;5072332;28;19930;-66
2024/01/28 03:17:43;;;;;;;;;;;0.30;99.90;;;;;;5075185;28;19991;-66
2024/01/28 03:20:10;;;;;;;;;;;0.30;99.90;;;;;;5073506;28;20286;-66
2024/01/28 03:22:35;;;;;;;;;;;0.30;99.90;;;;;;5071692;28;19973;-66
2024/01/28 03:25:01;;;;;;;;;;;0.30;99.90;;;;;;5076106;28;19920;-66
2024/01/28 03:27:27;;;;;;;;;;;0.30;99.90;;;;;;5078980;28;19923;-67
2024/01/28 03:29:52;;;;;;;;;;;0.30;99.90;;;;;;5074637;28;20438;-66
2024/01/28 03:32:18;;;;;;;;;;;0.40;99.90;;;;;;5071944;28;19916;-65
2024/01/28 03:34:44;;;;;;;;;;;0.40;99.90;;;;;;5074589;28;19920;-65
2024/01/28 03:37:09;;;;;;;;;;;0.40;99.90;;;;;;5072480;28;19924;-65
2024/01/28 03:39:35;;;;;;;;;;;0.40;99.90;;;;;;5079214;28;19998;-66
2024/01/28 03:42:00;;;;;;;;;;;0.40;99.90;;;;;;5077313;28;19995;-66
2024/01/28 03:44:26;;;;;;;;;;;0.50;99.90;;;;;;5082778;28;20351;-66
2024/01/28 03:46:53;;;;;;;;;;;0.50;99.90;;;;;;5078701;28;19959;-65
2024/01/28 03:49:19;;;;;;;;;;;0.50;99.90;;;;;;5093139;28;19947;-66
2024/01/28 03:51:45;;;;;;;;;;;0.50;99.90;;;;;;5076693;28;20313;-66
2024/01/28 03:54:10;;;;;;;;;;;0.50;99.90;;;;;;5077175;28;19928;-66
2024/01/28 03:56:37;;;;;;;;;;;0.50;99.90;;;;;;5073588;28;19923;-65
2024/01/28 03:59:03;;;;;;;;;;;0.40;99.90;;;;;;5071900;28;20533;-66
2024/01/28 04:01:32;;;;;;;;;;;0.50;99.90;;;;;;5081803;28;19970;-66
2024/01/28 04:03:57;;;;;;;;;;;0.40;99.90;;;;;;5075570;28;20160;-66
2024/01/28 04:06:23;;;;;;;;;;;0.40;99.90;;;;;;5079005;28;20053;-66
2024/01/28 04:08:52;;;;;;;;;;;0.30;99.90;;;;;;5074776;28;19924;-66
2024/01/28 04:11:18;;;;;;;;;;;0.20;99.90;;;;;;5060275;28;19916;-67
2024/01/28 04:13:43;;;;;;;;;;;0.20;99.90;;;;;;5080739;28;19927;-67
2024/01/28 04:16:09;;;;;;;;;;;0.10;99.90;;;;;;5080737;28;19930;-67
2024/01/28 04:18:34;;;;;;;;;;;0.10;99.90;;;;;;5079394;28;19916;-67
2024/01/28 04:21:00;;;;;;;;;;;0.00;99.90;;;;;;5078393;28;20388;-66
2024/01/28 04:23:25;;;;;;;;;;;-0.10;99.90;;;;;;5083115;28;19916;-66
2024/01/28 04:25:51;;;;;;;;;;;-0.10;99.90;;;;;;5078535;28;19923;-66
2024/01/28 04:28:17;;;;;;;;;;;-0.20;99.90;;;;;;5075285;28;19999;-66
2024/01/28 04:30:42;;;;;;;;;;;-0.20;99.90;;;;;;5074973;28;20388;-67
2024/01/28 04:33:08;;;;;;;;;;;-0.20;99.90;;;;;;5078348;28;20033;-67
2024/01/28 04:35:33;;;;;;;;;;;-0.30;99.90;;;;;;5079503;28;19939;-67
2024/01/28 04:37:59;;;;;;;;;;;-0.30;99.90;;;;;;5077679;28;19930;-67
2024/01/28 04:40:25;;;;;;;;;;;-0.30;99.90;;;;;;5073260;28;19916;-67
2024/01/28 04:42:50;;;;;;;;;;;-0.40;99.90;;;;;;5094732;28;19935;-67
2024/01/28 04:45:17;;;;;;;;;;;-0.40;99.90;;;;;;5079073;28;19916;-66
2024/01/28 04:47:42;;;;;;;;;;;-0.40;99.90;;;;;;5076594;28;19924;-67
2024/01/28 04:50:09;;;;;;;;;;;-0.50;99.90;;;;;;5080499;28;20273;-67
2024/01/28 04:52:34;;;;;;;;;;;-0.40;99.90;;;;;;5085645;28;20287;-67
2024/01/28 04:55:00;;;;;;;;;;;-0.40;99.90;;;;;;5072787;28;20002;-67
2024/01/28 04:57:25;;;;;;;;;;;-0.40;99.90;;;;;;5080188;28;20139;-67
2024/01/28 04:59:51;;;;;;;;;;;-0.40;99.90;;;;;;5074766;28;19951;-67
2024/01/28 05:02:17;;;;;;;;;;;-0.40;99.90;;;;;;5074274;28;20006;-67
2024/01/28 05:04:42;;;;;;;;;;;-0.40;99.90;;;;;;5076458;28;20034;-67
2024/01/28 05:07:09;;;;;;;;;;;-0.40;99.90;;;;;;5092529;28;19917;-67
2024/01/28 05:09:35;;;;;;;;;;;-0.40;99.90;;;;;;5071152;28;19924;-67
2024/01/28 05:12:00;;;;;;;;;;;-0.50;99.90;;;;;;5077072;28;20373;-66
2024/01/28 05:14:26;;;;;;;;;;;-0.40;99.90;;;;;;5080363;28;20007;-67
2024/01/28 05:16:51;;;;;;;;;;;-0.40;99.90;;;;;;5072770;28;19917;-66
2024/01/28 05:19:17;;;;;;;;;;;-0.30;99.90;;;;;;5079321;28;19916;-66
2024/01/28 05:21:43;;;;;;;;;;;-0.30;99.90;;;;;;5074515;28;20324;-66
2024/01/28 05:24:09;;;;;;;;;;;-0.30;99.90;;;;;;5076598;28;19923;-67
2024/01/28 05:26:35;;;;;;;;;;;-0.30;99.90;;;;;;5074709;28;20325;-66
2024/01/28 05:29:05;;;;;;;;;;;-0.30;99.90;;;;;;5076437;28;19920;-67
2024/01/28 05:31:33;;;;;;;;;;;-0.30;99.90;;;;;;5071400;28;20335;-67
2024/01/28 05:34:00;;;;;;;;;;;-0.30;99.90;;;;;;5073495;28;19920;-66
2024/01/28 05:36:25;;;;;;;;;;;-0.40;99.90;;;;;;5076856;28;19916;-67
2024/01/28 05:38:51;;;;;;;;;;;-0.40;99.90;;;;;;5073199;28;19923;-67
2024/01/28 05:41:16;;;;;;;;;;;-0.40;99.90;;;;;;5075466;28;20033;-67
2024/01/28 05:43:42;;;;;;;;;;;-0.40;99.90;;;;;;5073297;28;19928;-66
2024/01/28 05:46:07;;;;;;;;;;;-0.40;99.90;;;;;;5071378;28;19916;-67
2024/01/28 05:48:33;;;;;;;;;;;-0.40;99.90;;;;;;5074627;28;19924;-67
2024/01/28 05:50:59;;;;;;;;;;;-0.40;99.90;;;;;;5058963;28;19916;-67
2024/01/28 05:53:24;;;;;;;;;;;-0.40;99.90;;;;;;5076745;28;19999;-67
2024/01/28 05:55:52;;;;;;;;;;;-0.40;99.90;;;;;;5080562;28;19939;-67
2024/01/28 05:58:17;;;;;;;;;;;-0.40;99.90;;;;;;5076363;28;20432;-67
2024/01/28 06:00:44;;;;;;;;;;;-0.40;99.90;;;;;;5077547;28;19926;-67
2024/01/28 06:03:09;;;;;;;;;;;-0.30;99.90;;;;;;5079115;28;20070;-67
2024/01/28 06:05:35;;;;;;;;;;;-0.30;99.90;;;;;;5074994;28;20007;-67
2024/01/28 06:08:01;;;;;;;;;;;-0.40;99.90;;;;;;5072254;28;20014;-67
2024/01/28 06:10:26;;;;;;;;;;;-0.40;99.90;;;;;;5072460;28;19977;-67
2024/01/28 06:12:52;;;;;;;;;;;-0.40;99.90;;;;;;5081486;28;19927;-66
2024/01/28 06:15:17;;;;;;;;;;;-0.30;99.90;;;;;;5071939;28;19944;-67
2024/01/28 06:17:43;;;;;;;;;;;-0.30;99.90;;;;;;5078804;28;19922;-67
2024/01/28 06:20:09;;;;;;;;;;;-0.30;99.90;;;;;;5079104;28;19924;-67
2024/01/28 06:22:34;;;;;;;;;;;-0.40;99.90;;;;;;5071719;28;19923;-66
2024/01/28 06:25:00;;;;;;;;;;;-0.40;99.90;;;;;;5071713;28;19939;-67
2024/01/28 06:27:26;;;;;;;;;;;-0.40;99.90;;;;;;5074696;28;19920;-66
2024/01/28 06:29:52;;;;;;;;;;;-0.40;99.90;;;;;;5070312;28;20278;-66
2024/01/28 06:32:22;;;;;;;;;;;-0.40;99.90;;;;;;5075931;28;19916;-67
2024/01/28 06:34:48;;;;;;;;;;;-0.50;99.90;;;;;;5077376;28;19963;-66
2024/01/28 06:37:14;;;;;;;;;;;-0.40;99.90;;;;;;5076856;28;19916;-66
2024/01/28 06:39:39;;;;;;;;;;;-0.40;99.90;;;;;;5070370;28;19924;-66
2024/01/28 06:42:05;;;;;;;;;;;-0.40;99.90;;;;;;5068819;28;19917;-66
2024/01/28 06:44:34;;;;;;;;;;;-0.50;99.90;;;;;;5076673;28;19991;-67
2024/01/28 06:46:59;;;;;;;;;;;-0.50;99.90;;;;;;5071647;28;19923;-67
2024/01/28 06:49:25;;;;;;;;;;;-0.40;99.90;;;;;;5054366;28;19920;-67
2024/01/28 06:51:51;;;;;;;;;;;-0.40;99.90;;;;;;5055552;28;19920;-66
2024/01/28 06:54:18;;;;;;;;;;;-0.40;99.90;;;;;;5078579;28;19920;-66
2024/01/28 06:56:44;;;;;;;;;;;-0.40;99.90;;;;;;5038490;28;19916;-66
2024/01/28 06:59:10;;;;;;;;;;;-0.40;99.90;;;;;;5076114;28;20033;-67
2024/01/28 07:01:35;;;;;;;;;;;-0.40;99.90;;;;;;5072387;28;20040;-66
2024/01/28 07:04:01;;;;;;;;;;;-0.50;99.90;;;;;;5072132;28;19971;-67
2024/01/28 07:06:26;;;;;;;;;;;-0.50;99.90;;;;;;5074378;28;20032;-67
2024/01/28 07:08:52;;;;;;;;;;;-0.50;99.90;;;;;;5074585;28;20355;-66
2024/01/28 07:11:19;;;;;;;;;;;-0.50;99.90;;;;;;5066226;28;19917;-66
2024/01/28 07:13:45;;;;;;;;;;;-0.60;99.90;;;;;;5074284;28;19920;-66
2024/01/28 07:16:12;;;;;;;;;;;-0.60;99.90;;;;;;5080645;28;19922;-66
2024/01/28 07:18:37;;;;;;;;;;;-0.70;99.90;;;;;;5074048;28;19986;-66
2024/01/28 07:21:04;;;;;;;;;;;-0.60;99.90;;;;;;5072417;28;20389;-66
2024/01/28 07:23:29;;;;;;;;;;;-0.60;99.90;;;;;;5073461;28;19916;-66
2024/01/28 07:25:55;;;;;;;;;;;-0.60;99.90;;;;;;5069916;28;20507;-65
2024/01/28 07:28:21;;;;;;;;;;;-0.60;99.90;;;;;;5070505;28;20353;-68
2024/01/28 07:30:46;;;;;;;;;;;-0.50;99.90;;;;;;5078150;28;20337;-66
2024/01/28 07:33:13;;;;;;;;;;;-0.50;99.90;;;;;;5074486;28;19962;-66
2024/01/28 07:35:38;;;;;;;;;;;-0.50;99.90;;;;;;5081057;28;19920;-66
2024/01/28 07:38:04;;;;;;;;;;;-0.50;99.90;;;;;;5072600;28;19916;-66
2024/01/28 07:40:29;;;;;;;;;;;-0.50;99.90;;;;;;5074741;28;19978;-66
2024/01/28 07:42:55;;;;;;;;;;;-0.50;99.90;;;;;;5077649;28;19916;-67
2024/01/28 07:45:21;;;;;;;;;;;-0.50;99.90;;;;;;5072740;28;20010;-66
2024/01/28 07:47:47;;;;;;;;;;;-0.50;99.90;;;;;;5066211;28;19917;-66
2024/01/28 07:50:12;;;;;;;;;;;-0.50;99.90;;;;;;5075613;28;20118;-66
2024/01/28 07:52:38;;;;;;;;;;;-0.50;99.90;;;;;;5066637;28;19958;-66
2024/01/28 07:55:04;;;;;;;;;;;-0.40;99.90;;;;;;5072931;28;19963;-66
2024/01/28 07:57:30;;;;;;;;;;;-0.40;99.90;;;;;;5070244;28;19924;-66
2024/01/28 07:59:55;;;;;;;;;;;-0.30;99.90;;;;;;5070275;28;19928;-66
2024/01/28 08:02:21;;;;;;;;;;;-0.30;99.90;;;;;;5069901;28;20278;-65
2024/01/28 08:04:47;;;;;;;;;;;-0.20;99.90;;;;;;5070185;28;19943;-66
2024/01/28 08:07:13;;;;;;;;;;;-0.10;99.90;;;;;;5072787;28;19916;-66
2024/01/28 08:09:38;;;;;;;;;;;0.00;99.90;;;;;;5077444;28;19966;-66
2024/01/28 08:12:04;;;;;;;;;;;0.10;99.90;;;;;;5079843;28;19925;-66
2024/01/28 08:14:30;;;;;;;;;;;0.10;99.90;;;;;;5067905;28;19920;-66
2024/01/28 08:16:55;;;;;;;;;;;0.20;99.90;;;;;;5077805;28;19916;-67
2024/01/28 08:19:21;;;;;;;;;;;0.20;99.90;;;;;;5076968;28;20425;-66
2024/01/28 08:21:47;;;;;;;;;;;0.30;99.90;;;;;;5081529;28;20013;-66
2024/01/28 08:24:13;;;;;;;;;;;0.40;99.90;;;;;;5049337;28;19920;-66
2024/01/28 08:26:38;;;;;;;;;;;0.50;99.90;;;;;;5100687;28;19923;-66
2024/01/28 08:29:04;;;;;;;;;;;0.60;99.90;;;;;;5079696;28;20011;-66
2024/01/28 08:31:30;;;;;;;;;;;0.90;99.90;;;;;;5081995;28;19931;-66
2024/01/28 08:33:55;;;;;;;;;;;1.20;99.90;;;;;;5083045;28;19921;-66
2024/01/28 08:36:21;;;;;;;;;;;1.30;99.90;;;;;;5087486;28;20002;-66
2024/01/28 08:38:47;;;;;;;;;;;1.30;99.90;;;;;;5078469;28;19965;-66
2024/01/28 08:41:12;;;;;;;;;;;1.30;99.90;;;;;;5081062;28;19920;-66
2024/01/28 08:43:38;;;;;;;;;;;1.30;99.90;;;;;;5066302;28;19916;-66
2024/01/28 08:46:04;;;;;;;;;;;1.30;99.90;;;;;;5058742;28;20369;-66
2024/01/28 08:48:32;;;;;;;;;;;1.30;99.90;;;;;;5071799;28;19927;-65
2024/01/28 08:50:58;;;;;;;;;;;1.30;99.90;;;;;;5073271;28;19916;-66
2024/01/28 08:53:24;;;;;;;;;;;1.30;99.90;;;;;;5071632;28;19920;-66
2024/01/28 08:55:49;;;;;;;;;;;1.50;99.90;;;;;;5052517;28;19916;-66
2024/01/28 08:58:15;;;;;;;;;;;1.80;99.90;;;;;;5070006;28;20015;-66
2024/01/28 09:00:41;;;;;;;;;;;2.20;99.90;;;;;;5071771;28;19916;-66
2024/01/28 09:03:06;;;;;;;;;;;2.60;99.90;;;;;;5066347;28;20330;-66
2024/01/28 09:05:32;;;;;;;;;;;2.90;99.90;;;;;;5074758;28;19974;-66
2024/01/28 09:08:01;;;;;;;;;;;3.30;99.90;;;;;;5071041;28;19935;-66
2024/01/28 09:10:26;;;;;;;;;;;3.90;99.90;;;;;;5071731;28;19920;-66
2024/01/28 09:12:52;;;;;;;;;;;4.50;99.90;;;;;;5072822;28;20289;-66
2024/01/28 09:15:17;;;;;;;;;;;4.90;99.90;;;;;;5072421;28;19956;-66
2024/01/28 09:17:43;;;;;;;;;;;5.70;99.90;;;;;;5072678;28;19939;-66
2024/01/28 09:20:09;;;;;;;;;;;6.50;99.90;;;;;;5071582;28;20392;-66
2024/01/28 09:22:35;;;;;;;;;;;7.30;99.90;;;;;;5072601;28;19920;-66
2024/01/28 09:25:03;;;;;;;;;;;7.80;99.90;;;;;;5071227;28;20011;-66
2024/01/28 09:27:29;;;;;;;;;;;8.20;99.90;;;;;;5072274;28;20354;-66
2024/01/28 09:29:54;;;;;;;;;;;8.70;99.90;;;;;;5072731;28;19974;-67
2024/01/28 09:32:20;;;;;;;;;;;9.00;99.80;;;;;;5069666;28;19920;-66
2024/01/28 09:34:46;;;;;;;;;;;9.40;99.90;;;;;;5072578;28;19927;-67
2024/01/28 09:37:11;;;;;;;;;;;9.90;98.60;;;;;;5072258;28;20215;-67
2024/01/28 09:39:37;;;;;;;;;;;9.50;98.00;;;;;;5054295;28;19916;-66
2024/01/28 09:42:11;;;;;;;;;;;9.50;98.50;;;;;;5053271;28;21113;-67
2024/01/28 09:44:37;;;;;;;;;;;9.60;99.90;;;;;;5070935;28;19916;-66
2024/01/28 09:47:03;;;;;;;;;;;9.40;98.00;;;;;;5054385;28;19924;-66
2024/01/28 09:49:30;;;;;;;;;;;8.90;98.10;;;;;;5070298;28;20381;-66
2024/01/28 09:51:56;;;;;;;;;;;7.90;98.40;;;;;;5069459;28;19928;-66
2024/01/28 09:54:22;;;;;;;;;;;7.50;99.20;;;;;;5067694;28;19989;-66
2024/01/28 09:56:49;;;;;;;;;;;7.30;99.90;;;;;;5071346;28;20294;-66
2024/01/28 09:59:15;;;;;;;;;;;7.00;98.70;;;;;;5072212;28;19917;-65
2024/01/28 10:01:42;;;;;;;;;;;6.80;99.90;;;;;;5073396;28;19920;-66
2024/01/28 10:04:10;;;;;;;;;;;6.40;99.90;;;;;;5077835;28;19927;-66
2024/01/28 10:06:36;;;;;;;;;;;6.00;99.90;;;;;;5071501;28;19917;-66
2024/01/28 10:09:02;;;;;;;;;;;5.90;99.90;;;;;;5068656;28;20057;-65
2024/01/28 10:11:28;;;;;;;8.25;4.53;;;6.40;99.90;;;;;;5067004;28;20405;-66
2024/01/28 10:13:54;;;;;;;8.00;4.65;;;6.60;99.90;;;;;;5059088;28;20423;-66
2024/01/28 10:16:24;;;;;;;9.30;4.70;;;6.90;99.90;;;;;;5066969;28;20412;-65
2024/01/28 10:18:49;;;;;;;9.68;4.95;;;6.80;99.90;;;;;;5067236;28;20745;-66
2024/01/28 10:21:15;;;;;;;10.25;4.90;;;6.70;99.90;;;;;;5068528;28;20418;-65
2024/01/28 10:23:43;;;;;;;8.47;4.77;;;6.80;99.90;;;;;;5068279;28;20469;-66
2024/01/28 10:26:09;;;;;;;7.55;4.60;;;6.70;99.90;;;;;;5069884;28;20922;-65
2024/01/28 10:28:38;;;;;;;9.52;4.72;;;7.00;99.90;;;;;;5068573;28;20408;-66
2024/01/28 10:31:04;;;;;;;9.70;4.77;;;7.20;99.90;;;;;;5068952;28;20491;-66
2024/01/28 10:33:29;;;;;;;9.40;4.67;;;7.00;99.90;;;;;;5067993;28;20498;-66
2024/01/28 10:35:59;;;;;;;9.02;4.80;;;6.80;99.90;;;;;;5070065;28;20889;-65
2024/01/28 10:38:26;;;;;;;7.80;4.40;;;6.90;99.90;;;;;;5066899;28;20423;-65
2024/01/28 10:40:52;;;;;;;6.88;4.20;;;6.70;99.90;;;;;;5051073;28;20474;-65
2024/01/28 10:43:25;;;;;;;9.17;4.43;;;6.40;99.90;;;;;;5051625;28;20450;-66
2024/01/28 10:45:54;;;;;;;7.40;4.13;;;6.20;99.90;;;;;;5063818;28;20423;-66
2024/01/28 10:48:22;;;;;;;10.37;5.00;;;5.90;99.90;;;;;;5064413;28;21872;-65
2024/01/28 10:50:51;;;;;;;9.65;4.53;;;5.70;99.90;;;;;;5069249;28;20410;-65
2024/01/28 10:53:18;;;;;;;6.28;4.03;;;5.60;99.90;;;;;;5068422;28;20490;-65
2024/01/28 10:55:44;;;;;;;8.38;4.40;;;5.70;99.90;;;;;;5048689;28;20728;-65
2024/01/28 10:58:11;;;;;;;7.28;4.30;;;5.70;99.90;;;;;;5068266;28;20407;-66
2024/01/28 11:00:38;;;;;;;6.37;4.03;;;5.70;99.90;;;;;;5064547;28;20412;-65
2024/01/28 11:03:07;;;;;;;7.35;4.10;;;6.00;99.90;;;;;;5068173;28;20423;-65
2024/01/28 11:05:35;;;;;;;7.93;4.33;;;6.20;99.90;;;;;;5065802;28;20450;-65
2024/01/28 11:08:01;;;;;;;8.90;4.18;;;6.50;99.90;;;;;;5068913;28;20427;-65
2024/01/28 11:10:28;;;;;;;7.72;4.32;;;6.90;99.90;;;;;;5068316;28;20875;-65
2024/01/28 11:12:55;;;;;;;7.30;3.95;;;6.70;99.90;;;;;;5060816;28;20412;-65
2024/01/28 11:15:21;;;;;;;7.22;3.80;;;6.70;99.90;;;;;;5067956;28;20415;-65
2024/01/28 11:17:47;;;;;;;7.10;3.95;;;6.60;99.90;;;;;;5069287;28;20818;-65
2024/01/28 11:20:17;;;;;;;7.72;4.10;;;6.40;99.90;;;;;;5067673;28;20849;-66
2024/01/28 11:22:53;;;;;;;8.80;3.88;;;6.30;99.90;;;;;;5061136;28;20436;-66
2024/01/28 11:25:24;;;;;;;6.30;3.90;;;6.40;99.90;;;;;;5068053;28;21196;-67
2024/01/28 11:27:50;;;;;;;9.35;4.15;;;6.50;99.90;;;;;;5058774;28;20969;-66
2024/01/28 11:30:23;;;;;;;8.40;4.00;;;6.40;99.90;;;;;;5067113;28;20407;-66
2024/01/28 11:32:52;;;;;;;6.72;3.88;;;6.40;99.90;;;;;;5068421;28;20408;-66
2024/01/28 11:35:18;;;;;;;6.57;3.92;;;6.40;99.90;;;;;;5067618;28;20418;-66
2024/01/28 11:37:56;;;;;;;5.88;3.50;;;6.40;99.90;;;;;;5068619;28;20400;-66
2024/01/28 11:40:28;;;;;;;6.93;3.72;;;6.50;99.90;;;;;;5067595;28;20400;-66
2024/01/28 11:42:54;;;;;;;8.33;3.63;;;6.50;99.90;;;;;;5067476;28;20396;-65
2024/01/28 11:45:24;;;;;;;8.17;4.17;;;6.60;99.90;;;;;;5067941;28;20487;-67
2024/01/28 11:47:51;;;;;;;7.85;3.92;;;6.60;99.90;;;;;;5061890;28;20479;-66
2024/01/28 11:50:16;;;;;;;5.90;3.53;;;6.60;99.90;;;;;;5068593;28;20935;-66
2024/01/28 11:52:43;;;;;;;6.45;3.42;;;6.50;99.90;;;;;;5068280;28;20482;-66
2024/01/28 11:55:10;;;;;;;6.93;3.50;;;6.50;99.90;;;;;;5068177;28;20772;-66
2024/01/28 11:57:36;;;;;;;5.50;3.50;;;6.60;99.90;;;;;;5068703;28;20749;-66
2024/01/28 12:00:03;;;;;;;7.50;3.40;;;6.50;99.90;;;;;;5068943;28;20580;-66
2024/01/28 12:02:30;;;;;;;7.13;3.53;;;6.50;99.90;;;;;;5053620;28;20435;-66
2024/01/28 12:04:56;;;;;;;6.93;3.70;;;6.60;99.90;;;;;;5054654;28;20792;-66
2024/01/28 12:07:22;;;;;;;6.60;3.57;;;6.60;99.90;;;;;;5072246;28;20426;-66
2024/01/28 12:09:51;;;;;;;5.00;3.42;;;6.70;99.90;;;;;;5072869;28;20467;-66
2024/01/28 12:12:17;;;;;;;6.30;3.42;;;6.70;99.90;;;;;;5072484;28;20394;-66
2024/01/28 12:14:42;;;;;;;6.07;3.43;;;6.80;99.90;;;;;;5069917;28;20419;-66
2024/01/28 12:17:09;;;;;;;6.57;3.42;;;6.90;99.90;;;;;;5054180;28;20403;-66
2024/01/28 12:19:38;;;;;;;7.38;3.58;;;6.90;99.90;;;;;;5072618;28;20403;-66
2024/01/28 12:22:04;;;;;;;5.13;3.40;;;6.90;99.90;;;;;;5063438;28;20409;-66
2024/01/28 12:24:31;;;;;;;4.90;3.30;;;7.00;99.90;;;;;;5046541;28;20418;-66
2024/01/28 12:26:56;;;;;;;5.93;3.40;;;7.10;99.90;;;;;;5065231;28;20884;-66
2024/01/28 12:29:22;;;;;;;9.27;3.30;;;7.30;99.90;;;;;;5070322;28;20406;-66
2024/01/28 12:31:50;;;;;;;5.33;3.00;;;7.40;99.90;;;;;;5072384;28;20475;-66
2024/01/28 12:34:15;;;;;;;6.07;3.15;;;7.50;99.40;;;;;;5072908;28;20428;-66
2024/01/28 12:36:41;;;;;;;5.20;3.27;;;7.60;99.80;;;;;;5082840;28;20395;-66
2024/01/28 12:39:07;;;;;;;5.60;3.30;;;7.80;99.40;;;;;;5070550;28;20463;-66
2024/01/28 12:41:33;;;;;;;5.30;3.28;;;8.00;99.60;;;;;;5070255;28;20419;-66
2024/01/28 12:43:59;;;;;;;7.23;3.30;;;8.10;99.00;;;;;;5070659;28;20406;-66
2024/01/28 12:46:24;;;;;;;5.97;3.00;;;8.10;98.00;;;;;;5070425;28;20795;-66
2024/01/28 12:48:50;;;;;;;5.43;2.90;;;8.20;98.40;;;;;;5070279;28;20539;-66
2024/01/28 12:51:16;;;;;;;4.70;2.90;;;8.20;98.30;;;;;;5053838;28;20900;-66
2024/01/28 12:53:42;;;;;;;4.40;3.08;;;8.30;97.70;;;;;;5070384;28;20427;-66
2024/01/28 12:56:07;;;;;;;5.03;3.10;;;8.30;97.20;;;;;;5069834;28;20402;-65
2024/01/28 12:58:33;;;;;;;5.37;2.90;;;8.20;97.50;;;;;;5069965;28;20414;-65
2024/01/28 13:00:59;;;;;;;6.03;3.03;;;8.40;97.80;;;;;;5071981;28;20399;-65
2024/01/28 13:03:25;;;;;;;6.00;3.42;;;8.60;97.80;;;;;;5069119;28;20993;-65
2024/01/28 13:05:50;;;;;;;6.87;3.40;;;8.80;97.80;;;;;;5063145;28;20793;-64
2024/01/28 13:08:16;;;;;;;5.07;3.10;;;8.70;96.90;;;;;;5056627;28;20922;-65
2024/01/28 13:10:42;;;;;;;6.57;3.23;;;8.80;97.30;;;;;;5064174;28;20454;-65
2024/01/28 13:13:07;;;;;;;6.07;3.25;;;8.80;96.60;;;;;;5058241;28;20464;-65
2024/01/28 13:15:33;;;;;;;5.18;2.90;;;8.80;97.20;;;;;;5071678;28;20926;-65
2024/01/28 13:17:59;;;;;;;5.90;3.07;;;8.80;96.80;;;;;;5070343;28;20400;-64
2024/01/28 13:20:24;;;;;;;6.03;3.20;;;8.70;97.10;;;;;;5067934;28;20778;-64
2024/01/28 13:22:50;;;;;;;4.90;3.10;;;8.90;97.50;;;;;;5071071;28;20384;-64
2024/01/28 13:25:16;;;;;;;5.40;3.17;;;8.90;96.70;;;;;;5069190;28;20831;-64
2024/01/28 13:27:42;;;;;;;5.67;3.00;;;9.00;97.00;;;;;;5065988;28;20414;-64
2024/01/28 13:30:08;;;;;;;6.50;3.28;;;9.00;97.30;;;;;;5070314;28;20422;-64
2024/01/28 13:32:37;;;;;;;6.15;3.50;;;9.10;97.00;;;;;;5069972;28;20457;-65
2024/01/28 13:35:06;;;;;;;7.40;3.30;;;9.10;96.70;;;;;;5053156;28;20537;-64
2024/01/28 13:37:31;;;;;;;4.55;3.10;;;9.00;96.90;;;;;;5070790;28;20776;-65
2024/01/28 13:39:57;;;;;;;5.67;3.10;;;9.00;96.90;;;;;;5071085;28;20400;-65
2024/01/28 13:42:23;;;;;;;4.40;3.13;;;9.00;97.00;;;;;;5069395;28;20404;-65
2024/01/28 13:44:50;;;;;;;6.97;3.60;;;9.00;96.30;;;;;;5069827;28;20489;-64
2024/01/28 13:47:16;;;;;;;4.57;3.17;;;9.00;97.10;;;;;;5069346;28;20403;-65
2024/01/28 13:49:42;;;;;;;5.33;2.97;;;9.00;96.60;;;;;;5063950;28;20765;-65